createdAt,value
2018-10-19T00:00:11.391Z,0.00
2018-10-19T00:01:11.330Z,0.00
2018-10-19T00:02:11.138Z,0.00
2018-10-19T00:03:11.189Z,0.00
2018-10-19T00:04:11.114Z,0.00
2018-10-19T00:05:10.777Z,0.00
2018-10-19T00:06:11.375Z,0.00
2018-10-19T00:07:10.776Z,0.00
2018-10-19T00:08:11.197Z,0.00
2018-10-19T00:09:11.252Z,0.00
2018-10-19T00:10:10.726Z,0.00
2018-10-19T00:11:11.277Z,0.00
2018-10-19T00:12:11.198Z,0.00
2018-10-19T00:13:11.198Z,0.00
2018-10-19T00:14:11.225Z,0.00
2018-10-19T00:15:10.793Z,0.00
2018-10-19T00:16:11.255Z,0.00
2018-10-19T00:17:10.745Z,0.00
2018-10-19T00:18:11.252Z,0.00
2018-10-19T00:19:10.735Z,0.00
2018-10-19T00:20:11.203Z,0.00
2018-10-19T00:21:10.819Z,0.00
2018-10-19T00:22:10.670Z,0.00
2018-10-19T00:23:11.299Z,0.00
2018-10-19T00:24:11.123Z,0.00
2018-10-19T00:25:10.713Z,0.00
2018-10-19T00:26:10.760Z,0.00
2018-10-19T00:27:11.268Z,0.00
2018-10-19T00:28:11.148Z,0.00
2018-10-19T00:29:10.917Z,0.00
2018-10-19T00:30:11.200Z,0.00
2018-10-19T00:31:10.789Z,0.00
2018-10-19T00:32:10.754Z,0.00
2018-10-19T00:33:11.346Z,0.00
2018-10-19T00:34:10.602Z,0.00
2018-10-19T00:35:10.724Z,0.00
2018-10-19T00:36:11.165Z,0.00
2018-10-19T00:37:10.572Z,0.00
2018-10-19T00:38:10.561Z,0.00
2018-10-19T00:39:11.288Z,0.00
2018-10-19T00:40:10.580Z,0.00
2018-10-19T00:41:10.649Z,0.00
2018-10-19T00:42:10.600Z,0.00
2018-10-19T00:43:10.596Z,0.00
2018-10-19T00:44:10.631Z,0.00
2018-10-19T00:45:11.086Z,0.00
2018-10-19T00:46:11.003Z,0.00
2018-10-19T00:47:11.174Z,0.00
2018-10-19T00:48:11.122Z,0.00
2018-10-19T00:49:11.024Z,0.00
2018-10-19T00:50:10.668Z,0.00
2018-10-19T00:51:10.806Z,0.00
2018-10-19T00:52:10.896Z,0.00
2018-10-19T00:53:10.587Z,0.00
2018-10-19T00:54:10.881Z,0.00
2018-10-19T00:55:10.794Z,0.00
2018-10-19T00:56:10.862Z,0.00
2018-10-19T00:57:10.714Z,0.00
2018-10-19T00:58:10.994Z,0.00
2018-10-19T00:59:10.655Z,0.00
2018-10-19T01:00:10.518Z,0.00
2018-10-19T01:01:11.037Z,0.00
2018-10-19T01:02:11.018Z,0.00
2018-10-19T01:03:10.923Z,0.00
2018-10-19T01:04:11.051Z,0.00
2018-10-19T01:05:11.067Z,0.00
2018-10-19T01:06:11.006Z,0.00
2018-10-19T01:07:10.946Z,0.00
2018-10-19T01:08:10.745Z,0.00
2018-10-19T01:09:10.574Z,0.00
2018-10-19T01:10:10.468Z,0.00
2018-10-19T01:11:12.647Z,0.00
2018-10-19T01:12:10.725Z,0.00
2018-10-19T01:13:10.821Z,0.00
2018-10-19T01:14:10.450Z,0.00
2018-10-19T01:15:10.895Z,0.00
2018-10-19T01:16:10.443Z,0.00
2018-10-19T01:17:10.779Z,0.00
2018-10-19T01:18:10.805Z,0.00
2018-10-19T01:19:10.444Z,0.00
2018-10-19T01:20:10.486Z,0.00
2018-10-19T01:21:10.543Z,0.00
2018-10-19T01:22:10.979Z,0.00
2018-10-19T01:23:11.034Z,0.00
2018-10-19T01:24:10.353Z,0.00
2018-10-19T01:25:10.685Z,0.00
2018-10-19T01:26:10.803Z,0.00
2018-10-19T01:27:10.961Z,0.00
2018-10-19T01:28:10.462Z,0.00
2018-10-19T01:29:10.809Z,0.00
2018-10-19T01:30:11.324Z,0.00
2018-10-19T01:31:10.842Z,0.00
2018-10-19T01:32:10.746Z,0.00
2018-10-19T01:33:12.663Z,0.00
2018-10-19T01:34:10.840Z,0.00
2018-10-19T01:35:10.817Z,0.00
2018-10-19T01:36:10.895Z,0.00
2018-10-19T01:37:10.688Z,0.00
2018-10-19T01:38:10.686Z,0.00
2018-10-19T01:39:10.809Z,0.00
2018-10-19T01:40:10.667Z,0.00
2018-10-19T01:41:10.776Z,0.00
2018-10-19T01:42:10.667Z,0.00
2018-10-19T01:43:10.637Z,0.00
2018-10-19T01:44:10.622Z,0.00
2018-10-19T01:45:10.744Z,0.00
2018-10-19T01:46:10.635Z,0.00
2018-10-19T01:47:11.043Z,0.00
2018-10-19T01:48:10.737Z,0.00
2018-10-19T01:49:10.949Z,0.00
2018-10-19T01:50:10.667Z,0.00
2018-10-19T01:51:11.708Z,0.00
2018-10-19T01:52:10.850Z,0.00
2018-10-19T01:53:10.722Z,0.00
2018-10-19T01:54:10.622Z,0.00
2018-10-19T01:55:10.696Z,0.00
2018-10-19T01:56:10.706Z,0.00
2018-10-19T01:57:10.987Z,0.00
2018-10-19T01:58:10.652Z,0.00
2018-10-19T01:59:10.482Z,0.00
2018-10-19T02:00:10.849Z,0.00
2018-10-19T02:01:10.866Z,0.00
2018-10-19T02:02:10.767Z,0.00
2018-10-19T02:03:11.031Z,0.00
2018-10-19T02:04:10.859Z,0.00
2018-10-19T02:05:10.871Z,0.00
2018-10-19T02:06:10.716Z,0.00
2018-10-19T02:07:10.851Z,0.00
2018-10-19T02:08:10.852Z,0.00
2018-10-19T02:09:10.693Z,0.00
2018-10-19T02:10:10.681Z,0.00
2018-10-19T02:11:10.383Z,0.00
2018-10-19T02:12:10.215Z,0.00
2018-10-19T02:13:10.767Z,0.00
2018-10-19T02:14:10.088Z,0.00
2018-10-19T02:15:10.805Z,0.00
2018-10-19T02:16:10.130Z,0.00
2018-10-19T02:17:10.135Z,0.00
2018-10-19T02:18:10.850Z,0.00
2018-10-19T02:19:10.756Z,0.00
2018-10-19T02:20:11.202Z,0.00
2018-10-19T02:21:10.475Z,0.00
2018-10-19T02:22:11.221Z,0.00
2018-10-19T02:23:10.163Z,0.00
2018-10-19T02:24:10.642Z,0.00
2018-10-19T02:25:10.851Z,0.00
2018-10-19T02:26:10.035Z,0.00
2018-10-19T02:27:10.561Z,0.00
2018-10-19T02:28:10.060Z,0.00
2018-10-19T02:29:10.139Z,0.00
2018-10-19T02:30:10.144Z,0.00
2018-10-19T02:31:10.138Z,0.00
2018-10-19T02:32:12.303Z,0.00
2018-10-19T02:33:10.453Z,0.00
2018-10-19T02:34:10.047Z,0.00
2018-10-19T02:35:10.158Z,0.00
2018-10-19T02:36:10.851Z,0.00
2018-10-19T02:37:10.101Z,0.00
2018-10-19T02:38:10.085Z,0.00
2018-10-19T02:39:10.093Z,0.00
2018-10-19T02:40:10.475Z,0.00
2018-10-19T02:41:10.163Z,0.00
2018-10-19T02:42:10.600Z,0.00
2018-10-19T02:43:10.495Z,0.00
2018-10-19T02:44:10.358Z,0.00
2018-10-19T02:45:10.002Z,0.00
2018-10-19T02:46:10.368Z,0.00
2018-10-19T02:47:10.041Z,0.00
2018-10-19T02:48:09.942Z,0.00
2018-10-19T02:49:10.691Z,0.00
2018-10-19T02:50:10.218Z,0.00
2018-10-19T02:51:10.260Z,0.00
2018-10-19T02:52:10.249Z,0.00
2018-10-19T02:53:10.277Z,0.00
2018-10-19T02:54:10.813Z,0.00
2018-10-19T02:55:10.025Z,0.00
2018-10-19T02:56:10.327Z,0.00
2018-10-19T02:57:10.303Z,0.00
2018-10-19T02:58:10.181Z,0.00
2018-10-19T02:59:10.022Z,0.00
2018-10-19T03:00:10.152Z,0.00
2018-10-19T03:01:10.361Z,0.00
2018-10-19T03:02:10.361Z,0.00
2018-10-19T03:03:10.310Z,0.00
2018-10-19T03:04:10.246Z,0.00
2018-10-19T03:05:10.402Z,0.00
2018-10-19T03:06:10.275Z,0.00
2018-10-19T03:07:10.476Z,0.00
2018-10-19T03:08:10.868Z,0.00
2018-10-19T03:09:09.975Z,0.00
2018-10-19T03:10:09.997Z,0.00
2018-10-19T03:11:09.964Z,0.00
2018-10-19T03:12:10.320Z,0.00
2018-10-19T03:13:10.356Z,0.00
2018-10-19T03:14:10.296Z,0.00
2018-10-19T03:15:10.378Z,0.00
2018-10-19T03:16:10.203Z,0.00
2018-10-19T03:17:10.296Z,0.00
2018-10-19T03:18:10.408Z,0.00
2018-10-19T03:19:10.277Z,0.00
2018-10-19T03:20:10.199Z,0.00
2018-10-19T03:21:09.865Z,0.00
2018-10-19T03:22:10.721Z,0.00
2018-10-19T03:23:10.312Z,0.00
2018-10-19T03:24:10.166Z,0.00
2018-10-19T03:25:09.881Z,0.00
2018-10-19T03:26:10.365Z,0.00
2018-10-19T03:27:11.138Z,0.00
2018-10-19T03:28:10.154Z,0.00
2018-10-19T03:29:10.211Z,0.00
2018-10-19T03:30:10.852Z,0.00
2018-10-19T03:31:10.170Z,0.00
2018-10-19T03:32:10.134Z,0.00
2018-10-19T03:33:10.196Z,0.00
2018-10-19T03:34:10.208Z,0.00
2018-10-19T03:35:10.237Z,0.00
2018-10-19T03:36:10.199Z,0.00
2018-10-19T03:37:10.130Z,0.00
2018-10-19T03:38:10.197Z,0.00
2018-10-19T03:39:09.799Z,0.00
2018-10-19T03:40:10.148Z,0.00
2018-10-19T03:41:10.373Z,0.00
2018-10-19T03:42:10.171Z,0.00
2018-10-19T03:43:10.208Z,0.00
2018-10-19T03:44:10.205Z,0.00
2018-10-19T03:45:12.061Z,0.00
2018-10-19T03:46:10.173Z,0.00
2018-10-19T03:47:10.277Z,0.00
2018-10-19T03:48:10.186Z,0.00
2018-10-19T03:49:10.281Z,0.00
2018-10-19T03:50:10.182Z,0.00
2018-10-19T03:51:10.229Z,0.00
2018-10-19T03:52:12.141Z,0.00
2018-10-19T03:53:09.905Z,0.00
2018-10-19T03:54:09.619Z,0.00
2018-10-19T03:55:10.461Z,0.00
2018-10-19T03:56:09.419Z,0.00
2018-10-19T03:57:10.244Z,0.00
2018-10-19T03:58:09.623Z,0.00
2018-10-19T03:59:10.463Z,0.00
2018-10-19T04:00:09.578Z,0.00
2018-10-19T04:01:09.900Z,0.00
2018-10-19T04:02:09.885Z,0.00
2018-10-19T04:03:09.696Z,0.00
2018-10-19T04:04:09.959Z,0.00
2018-10-19T04:05:09.966Z,0.00
2018-10-19T04:06:09.967Z,0.00
2018-10-19T04:07:09.578Z,0.00
2018-10-19T04:08:09.665Z,0.00
2018-10-19T04:09:09.934Z,0.00
2018-10-19T04:10:09.976Z,0.00
2018-10-19T04:11:09.950Z,0.00
2018-10-19T04:12:10.094Z,0.00
2018-10-19T04:13:09.897Z,0.00
2018-10-19T04:14:09.907Z,0.00
2018-10-19T04:15:09.672Z,0.00
2018-10-19T04:16:09.722Z,0.00
2018-10-19T04:17:09.799Z,0.00
2018-10-19T04:18:10.218Z,0.00
2018-10-19T04:19:10.316Z,0.00
2018-10-19T04:20:09.364Z,0.00
2018-10-19T04:21:10.252Z,0.00
2018-10-19T04:22:09.539Z,0.00
2018-10-19T04:23:10.027Z,0.00
2018-10-19T04:24:09.355Z,0.00
2018-10-19T04:25:09.738Z,0.00
2018-10-19T04:26:09.677Z,0.00
2018-10-19T04:27:09.746Z,0.00
2018-10-19T04:28:09.716Z,0.00
2018-10-19T04:29:09.797Z,0.00
2018-10-19T04:30:09.651Z,0.00
2018-10-19T04:31:09.739Z,0.00
2018-10-19T04:32:09.878Z,0.00
2018-10-19T04:33:09.815Z,0.00
2018-10-19T04:34:09.726Z,0.00
2018-10-19T04:35:09.729Z,0.00
2018-10-19T04:36:09.710Z,0.00
2018-10-19T04:37:09.743Z,0.00
2018-10-19T04:38:09.412Z,0.00
2018-10-19T04:39:09.950Z,0.00
2018-10-19T04:40:09.780Z,0.00
2018-10-19T04:41:09.972Z,0.00
2018-10-19T04:42:09.701Z,0.00
2018-10-19T04:43:11.545Z,0.00
2018-10-19T04:44:11.469Z,0.00
2018-10-19T04:45:10.002Z,0.00
2018-10-19T04:46:09.768Z,0.00
2018-10-19T04:47:10.573Z,0.00
2018-10-19T04:48:10.207Z,0.00
2018-10-19T04:49:09.825Z,0.00
2018-10-19T04:50:09.298Z,0.00
2018-10-19T04:51:09.473Z,0.00
2018-10-19T04:54:28.651Z,0.00
2018-10-19T04:55:04.125Z,0.00
2018-10-19T04:56:58.655Z,0.00
2018-10-19T04:57:59.135Z,0.00
2018-10-19T05:00:31.697Z,0.00
2018-10-19T05:01:31.723Z,0.00
2018-10-19T05:03:42.340Z,0.00
2018-10-19T05:04:38.932Z,0.00
2018-10-19T05:07:45.821Z,0.00
2018-10-19T05:09:40.326Z,0.00
2018-10-19T05:10:40.208Z,0.00
2018-10-19T05:12:59.476Z,0.00
2018-10-19T05:13:34.264Z,0.00
2018-10-19T05:15:32.295Z,0.00
2018-10-19T05:16:56.619Z,0.00
2018-10-19T05:17:59.571Z,0.00
2018-10-19T05:18:36.477Z,0.00
2018-10-19T05:20:27.579Z,0.00
2018-10-19T05:21:27.076Z,0.00
2018-10-19T05:23:50.582Z,0.00
2018-10-19T05:24:50.830Z,0.00
2018-10-19T05:26:44.167Z,0.00
2018-10-19T05:27:44.926Z,0.00
2018-10-19T05:29:49.921Z,0.00
2018-10-19T05:30:52.273Z,0.00
2018-10-19T05:32:47.942Z,0.00
2018-10-19T05:33:46.649Z,4.00
2018-10-19T05:35:40.958Z,0.00
2018-10-19T05:36:41.374Z,4.00
2018-10-19T05:37:41.951Z,4.00
2018-10-19T05:38:41.751Z,4.00
2018-10-19T05:39:41.256Z,4.00
2018-10-19T05:40:41.152Z,4.00
2018-10-19T05:41:41.270Z,8.00
2018-10-19T05:43:35.684Z,8.00
2018-10-19T05:44:36.032Z,12.00
2018-10-19T05:46:36.559Z,20.00
2018-10-19T05:47:30.673Z,20.00
2018-10-19T05:49:24.901Z,28.00
2018-10-19T05:51:38.833Z,40.00
2018-10-19T05:53:52.521Z,56.00
2018-10-19T05:54:52.245Z,60.00
2018-10-19T05:56:46.551Z,76.00
2018-10-19T05:57:46.408Z,84.00
2018-10-19T05:59:40.588Z,104.00
2018-10-19T06:00:40.577Z,116.00
2018-10-19T06:02:34.894Z,128.00
2018-10-19T06:03:34.747Z,140.00
2018-10-19T06:05:28.905Z,156.00
2018-10-19T06:06:28.888Z,164.00
2018-10-19T06:08:23.123Z,180.00
2018-10-19T06:09:23.040Z,192.00
2018-10-19T06:11:18.428Z,216.00
2018-10-19T06:12:18.496Z,228.00
2018-10-19T06:13:18.475Z,244.00
2018-10-19T06:14:18.892Z,260.00
2018-10-19T06:15:24.822Z,276.00
2018-10-19T06:16:33.005Z,292.00
2018-10-19T06:17:18.512Z,308.00
2018-10-19T06:18:18.406Z,320.00
2018-10-19T06:19:18.895Z,336.00
2018-10-19T06:20:18.432Z,352.00
2018-10-19T06:21:24.829Z,368.00
2018-10-19T06:22:18.474Z,384.00
2018-10-19T06:23:24.765Z,400.00
2018-10-19T06:24:18.636Z,416.00
2018-10-19T06:25:19.300Z,432.00
2018-10-19T06:26:18.926Z,448.00
2018-10-19T06:27:20.945Z,464.00
2018-10-19T06:28:18.926Z,480.00
2018-10-19T06:29:46.576Z,496.00
2018-10-19T06:30:24.719Z,508.00
2018-10-19T06:33:05.078Z,552.00
2018-10-19T06:34:04.536Z,568.00
2018-10-19T06:42:29.346Z,704.00
2018-10-19T06:42:49.890Z,712.00
2018-10-19T06:43:50.881Z,716.00
2018-10-19T06:45:13.780Z,724.00
2018-10-19T06:45:59.825Z,740.00
2018-10-19T06:46:50.934Z,756.00
2018-10-19T06:47:49.510Z,780.00
2018-10-19T06:48:50.392Z,808.00
2018-10-19T06:49:50.521Z,836.00
2018-10-19T06:51:10.866Z,844.00
2018-10-19T06:51:49.975Z,852.00
2018-10-19T06:53:10.561Z,852.00
2018-10-19T06:54:10.827Z,860.00
2018-10-19T06:55:25.561Z,876.00
2018-10-19T06:56:10.929Z,888.00
2018-10-19T07:00:49.269Z,948.00
2018-10-19T07:01:37.746Z,960.00
2018-10-19T07:04:06.171Z,996.00
2018-10-19T07:04:31.334Z,1016.00
2018-10-19T07:06:37.597Z,1044.00
2018-10-19T07:07:38.743Z,1064.00
2018-10-19T07:09:32.169Z,1104.00
2018-10-19T07:12:33.546Z,1204.00
2018-10-19T07:16:37.331Z,1392.00
2018-10-19T07:19:15.645Z,1540.00
2018-10-19T07:21:12.487Z,1568.00
2018-10-19T07:23:17.140Z,1544.00
2018-10-19T07:24:50.556Z,1528.00
2018-10-19T07:25:12.042Z,1508.00
2018-10-19T07:29:17.546Z,1528.00
2018-10-19T07:30:17.349Z,1544.00
2018-10-19T07:36:28.105Z,1588.00
2018-10-19T07:38:41.052Z,1640.00
2018-10-19T07:39:42.266Z,1672.00
2018-10-19T07:41:50.278Z,1732.00
2018-10-19T07:47:22.918Z,1864.00
2018-10-19T07:48:22.964Z,1884.00
2018-10-19T07:50:17.687Z,1936.00
2018-10-19T07:51:16.719Z,1952.00
2018-10-19T07:53:15.253Z,1996.00
2018-10-19T07:54:15.583Z,2024.00
2018-10-19T07:55:16.161Z,2064.00
2018-10-19T07:56:15.758Z,2088.00
2018-10-19T07:57:15.811Z,2120.00
2018-10-19T07:58:15.391Z,2140.00
2018-10-19T07:59:16.022Z,2160.00
2018-10-19T08:00:15.884Z,2188.00
2018-10-19T08:01:50.997Z,2212.00
2018-10-19T08:02:16.422Z,2236.00
2018-10-19T08:03:14.851Z,2260.00
2018-10-19T08:04:15.351Z,2268.00
2018-10-19T08:05:16.319Z,2304.00
2018-10-19T08:06:15.761Z,2340.00
2018-10-19T08:07:15.328Z,2372.00
2018-10-19T08:08:23.880Z,2396.00
2018-10-19T08:09:15.799Z,2436.00
2018-10-19T08:10:16.367Z,2492.00
2018-10-19T08:12:15.987Z,2544.00
2018-10-19T08:13:21.666Z,2560.00
2018-10-19T08:14:22.198Z,2596.00
2018-10-19T08:15:15.751Z,2624.00
2018-10-19T08:16:15.338Z,2632.00
2018-10-19T08:17:15.960Z,2640.00
2018-10-19T08:18:15.332Z,2668.00
2018-10-19T08:19:16.308Z,2672.00
2018-10-19T08:20:15.959Z,2680.00
2018-10-19T08:21:16.192Z,2672.00
2018-10-19T08:22:15.487Z,2688.00
2018-10-19T08:23:15.455Z,2700.00
2018-10-19T08:24:15.388Z,2752.00
2018-10-19T08:27:14.627Z,2896.00
2018-10-19T08:29:52.915Z,3000.00
2018-10-19T08:30:52.667Z,3008.00
2018-10-19T08:31:53.445Z,3036.00
2018-10-19T08:32:52.966Z,3072.00
2018-10-19T08:33:53.478Z,3076.00
2018-10-19T08:37:22.614Z,3180.00
2018-10-19T08:38:26.798Z,3220.00
2018-10-19T08:39:20.980Z,3212.00
2018-10-19T08:40:22.447Z,3260.00
2018-10-19T08:41:23.445Z,3260.00
2018-10-19T08:42:34.959Z,3280.00
2018-10-19T08:43:20.517Z,3308.00
2018-10-19T08:44:20.399Z,3328.00
2018-10-19T08:45:20.433Z,3352.00
2018-10-19T08:46:22.255Z,3376.00
2018-10-19T08:47:22.390Z,3428.00
2018-10-19T08:48:22.459Z,3456.00
2018-10-19T08:49:20.240Z,3480.00
2018-10-19T08:52:07.471Z,3536.00
2018-10-19T08:53:19.577Z,3568.00
2018-10-19T08:55:19.696Z,3604.00
2018-10-19T08:59:44.876Z,3740.00
2018-10-19T09:00:46.890Z,3780.00
2018-10-19T09:02:56.722Z,3832.00
2018-10-19T09:03:59.795Z,3840.00
2018-10-19T09:05:52.691Z,3864.00
2018-10-19T09:06:53.071Z,3888.00
2018-10-19T09:07:53.037Z,3888.00
2018-10-19T09:09:59.634Z,3936.00
2018-10-19T09:12:15.682Z,3964.00
2018-10-19T09:14:25.879Z,4032.00
2018-10-19T09:17:53.469Z,4116.00
2018-10-19T09:18:29.739Z,4144.00
2018-10-19T09:20:21.803Z,4204.00
2018-10-19T09:21:22.791Z,4228.00
2018-10-19T09:23:28.998Z,4284.00
2018-10-19T09:25:43.562Z,4372.00
2018-10-19T09:26:44.108Z,4432.00
2018-10-19T09:28:37.644Z,4568.00
2018-10-19T09:31:08.949Z,4700.00
2018-10-19T09:32:09.059Z,4768.00
2018-10-19T09:33:09.605Z,4828.00
2018-10-19T09:36:42.733Z,5056.00
2018-10-19T09:37:42.481Z,5108.00
2018-10-19T09:38:42.502Z,5164.00
2018-10-19T09:39:42.695Z,5236.00
2018-10-19T09:42:52.710Z,5464.00
2018-10-19T09:45:34.444Z,5648.00
2018-10-19T09:48:00.887Z,5844.00
2018-10-19T09:48:45.573Z,5940.00
2018-10-19T09:49:46.043Z,6052.00
2018-10-19T09:52:00.310Z,6268.00
2018-10-19T09:54:00.645Z,6532.00
2018-10-19T09:56:18.693Z,6716.00
2018-10-19T09:57:18.936Z,6884.00
2018-10-19T09:58:18.922Z,7316.00
2018-10-19T10:00:50.715Z,13332.00
2018-10-19T10:01:51.509Z,16288.00
2018-10-19T10:03:45.579Z,17312.00
2018-10-19T10:06:16.848Z,16224.00
2018-10-19T10:07:16.268Z,16160.00
2018-10-19T10:09:21.962Z,15296.00
2018-10-19T10:11:25.196Z,13688.00
2018-10-19T10:12:28.421Z,14324.00
2018-10-19T10:14:54.740Z,15456.00
2018-10-19T10:15:54.663Z,14136.00
2018-10-19T10:18:10.248Z,11360.00
2018-10-19T10:18:49.052Z,11288.00
2018-10-19T10:20:44.157Z,10528.00
2018-10-19T10:21:44.100Z,11160.00
2018-10-19T10:24:31.816Z,11164.00
2018-10-19T10:24:51.063Z,11452.00
2018-10-19T10:26:45.275Z,11424.00
2018-10-19T10:27:45.164Z,13716.00
2018-10-19T10:30:16.804Z,16032.00
2018-10-19T10:31:16.783Z,15008.00
2018-10-19T10:33:50.475Z,15840.00
2018-10-19T10:38:34.264Z,15284.00
2018-10-19T10:41:04.350Z,15112.00
2018-10-19T10:44:33.453Z,14904.00
2018-10-19T10:49:10.578Z,15552.00
2018-10-19T10:50:11.568Z,14996.00
2018-10-19T10:52:34.587Z,15648.00
2018-10-19T10:53:05.934Z,15712.00
2018-10-19T10:54:59.545Z,18272.00
2018-10-19T10:57:35.841Z,21632.00
2018-10-19T10:58:28.419Z,21696.00
2018-10-19T11:00:20.583Z,19840.00
2018-10-19T11:01:20.878Z,18784.00
2018-10-19T11:03:38.594Z,20416.00
2018-10-19T11:04:41.228Z,22432.00
2018-10-19T11:06:50.861Z,22976.00
2018-10-19T11:07:50.734Z,21632.00
2018-10-19T11:09:46.081Z,23872.00
2018-10-19T11:10:44.973Z,24320.00
2018-10-19T11:12:39.166Z,25664.00
2018-10-19T11:13:39.113Z,28096.00
2018-10-19T11:15:50.636Z,32800.00
2018-10-19T11:16:35.393Z,34944.00
2018-10-19T11:18:31.433Z,35136.00
2018-10-19T11:20:48.928Z,53504.00
2018-10-19T11:21:47.568Z,78144.00
2018-10-19T11:23:53.303Z,66400.00
2018-10-19T11:24:41.696Z,62112.00
2018-10-19T11:26:41.137Z,57920.00
2018-10-19T11:27:41.061Z,57632.00
2018-10-19T11:28:40.238Z,57088.00
2018-10-19T11:29:41.490Z,60256.00
2018-10-19T11:32:26.370Z,58592.00
2018-10-19T11:33:29.149Z,57184.00
2018-10-19T11:35:19.607Z,52064.00
2018-10-19T11:36:20.340Z,46496.00
2018-10-19T11:38:14.494Z,51264.00
2018-10-19T11:40:58.236Z,51040.00
2018-10-19T11:42:01.279Z,53056.00
2018-10-19T11:43:53.374Z,55040.00
2018-10-19T11:46:08.077Z,45248.00
2018-10-19T11:47:14.087Z,40608.00
